sensor_id;sensor_type;location;lat;lon;timestamp;pressure;altitude;pressure_sealevel;temperature;humidity
64675;BME280;51090;51.512;11.332;2023-08-12T00:01:13;99831.47;;;18.60;95.69
64675;BME280;51090;51.512;11.332;2023-08-12T00:03:38;99816.63;;;18.57;95.32
64675;BME280;51090;51.512;11.332;2023-08-12T00:06:04;99831.13;;;18.56;95.54
64675;BME280;51090;51.512;11.332;2023-08-12T00:08:31;99803.06;;;18.40;95.48
64675;BME280;51090;51.512;11.332;2023-08-12T00:10:57;99829.50;;;18.55;95.65
64675;BME280;51090;51.512;11.332;2023-08-12T00:13:22;99834.88;;;18.55;95.51
64675;BME280;51090;51.512;11.332;2023-08-12T00:15:48;99828.66;;;18.55;95.53
64675;BME280;51090;51.512;11.332;2023-08-12T00:18:14;99819.78;;;18.54;95.39
64675;BME280;51090;51.512;11.332;2023-08-12T00:20:41;99825.97;;;18.55;95.43
64675;BME280;51090;51.512;11.332;2023-08-12T00:23:08;99820.59;;;18.55;95.25
64675;BME280;51090;51.512;11.332;2023-08-12T00:25:33;99827.97;;;18.59;95.04
64675;BME280;51090;51.512;11.332;2023-08-12T00:27:59;99831.25;;;18.61;94.71
64675;BME280;51090;51.512;11.332;2023-08-12T00:30:25;99820.31;;;18.63;94.58
64675;BME280;51090;51.512;11.332;2023-08-12T00:32:51;99828.78;;;18.60;95.20
64675;BME280;51090;51.512;11.332;2023-08-12T00:35:17;99818.06;;;18.60;94.80
64675;BME280;51090;51.512;11.332;2023-08-12T00:37:43;99814.09;;;18.62;94.54
64675;BME280;51090;51.512;11.332;2023-08-12T00:40:09;99811.28;;;18.57;94.94
64675;BME280;51090;51.512;11.332;2023-08-12T00:42:35;99817.50;;;18.58;94.79
64675;BME280;51090;51.512;11.332;2023-08-12T00:45:01;99824.69;;;18.57;95.05
64675;BME280;51090;51.512;11.332;2023-08-12T00:47:28;99814.81;;;18.58;95.47
64675;BME280;51090;51.512;11.332;2023-08-12T00:49:55;99806.00;;;18.50;95.99
64675;BME280;51090;51.512;11.332;2023-08-12T00:52:23;99806.91;;;18.44;96.19
64675;BME280;51090;51.512;11.332;2023-08-12T00:54:49;99801.31;;;18.46;96.14
64675;BME280;51090;51.512;11.332;2023-08-12T00:57:14;99809.16;;;18.47;96.33
64675;BME280;51090;51.512;11.332;2023-08-12T00:59:42;99796.16;;;18.44;96.62
64675;BME280;51090;51.512;11.332;2023-08-12T01:02:09;99797.81;;;18.45;96.78
64675;BME280;51090;51.512;11.332;2023-08-12T01:04:36;99803.53;;;18.49;97.07
64675;BME280;51090;51.512;11.332;2023-08-12T01:07:01;99802.50;;;18.50;97.29
64675;BME280;51090;51.512;11.332;2023-08-12T01:09:29;99803.06;;;18.52;97.20
64675;BME280;51090;51.512;11.332;2023-08-12T01:12:09;99803.91;;;18.53;98.30
64675;BME280;51090;51.512;11.332;2023-08-12T01:14:59;99814.06;;;18.50;98.44
64675;BME280;51090;51.512;11.332;2023-08-12T01:17:29;99825.63;;;18.51;97.63
64675;BME280;51090;51.512;11.332;2023-08-12T01:19:56;99815.09;;;18.49;97.35
64675;BME280;51090;51.512;11.332;2023-08-12T01:22:25;99812.66;;;18.48;97.42
64675;BME280;51090;51.512;11.332;2023-08-12T01:24:52;99808.31;;;18.47;97.50
64675;BME280;51090;51.512;11.332;2023-08-12T01:27:18;99803.41;;;18.44;97.46
64675;BME280;51090;51.512;11.332;2023-08-12T01:29:49;99789.97;;;18.44;98.42
64675;BME280;51090;51.512;11.332;2023-08-12T01:37:29;99782.50;;;18.34;99.26
64675;BME280;51090;51.512;11.332;2023-08-12T01:39:59;99785.59;;;18.31;98.45
64675;BME280;51090;51.512;11.332;2023-08-12T01:42:27;99785.25;;;18.27;97.87
64675;BME280;51090;51.512;11.332;2023-08-12T01:44:53;99785.47;;;18.26;97.82
64675;BME280;51090;51.512;11.332;2023-08-12T01:47:19;99771.69;;;18.22;97.98
64675;BME280;51090;51.512;11.332;2023-08-12T01:49:46;99772.97;;;18.20;98.29
64675;BME280;51090;51.512;11.332;2023-08-12T01:52:11;99772.59;;;18.16;98.40
64675;BME280;51090;51.512;11.332;2023-08-12T01:54:37;99770.13;;;18.15;98.60
64675;BME280;51090;51.512;11.332;2023-08-12T01:57:04;99766.63;;;18.14;98.99
64675;BME280;51090;51.512;11.332;2023-08-12T01:59:35;99764.16;;;18.13;99.49
64675;BME280;51090;51.512;11.332;2023-08-12T02:02:01;99760.88;;;18.11;98.64
64675;BME280;51090;51.512;11.332;2023-08-12T02:04:27;99755.16;;;18.07;98.62
64675;BME280;51090;51.512;11.332;2023-08-12T02:06:54;99742.22;;;18.04;99.07
64675;BME280;51090;51.512;11.332;2023-08-12T02:09:20;99746.38;;;18.00;99.07
64675;BME280;51090;51.512;11.332;2023-08-12T02:11:45;99721.59;;;17.86;99.09
64675;BME280;51090;51.512;11.332;2023-08-12T02:14:11;99740.06;;;17.94;99.68
64675;BME280;51090;51.512;11.332;2023-08-12T02:16:38;99737.81;;;17.91;99.76
64675;BME280;51090;51.512;11.332;2023-08-12T02:19:04;99732.66;;;17.90;100.00
64675;BME280;51090;51.512;11.332;2023-08-12T02:21:30;99732.22;;;17.93;99.88
64675;BME280;51090;51.512;11.332;2023-08-12T02:23:56;99731.84;;;17.89;99.71
64675;BME280;51090;51.512;11.332;2023-08-12T02:26:22;99726.69;;;17.88;99.70
64675;BME280;51090;51.512;11.332;2023-08-12T02:28:48;99724.47;;;17.84;99.94
64675;BME280;51090;51.512;11.332;2023-08-12T02:31:16;99716.88;;;17.81;99.97
64675;BME280;51090;51.512;11.332;2023-08-12T02:33:42;99716.50;;;17.78;100.00
64675;BME280;51090;51.512;11.332;2023-08-12T02:36:08;99706.19;;;17.75;100.00
64675;BME280;51090;51.512;11.332;2023-08-12T02:38:35;99703.75;;;17.73;100.00
64675;BME280;51090;51.512;11.332;2023-08-12T02:41:01;99704.22;;;17.70;100.00
64675;BME280;51090;51.512;11.332;2023-08-12T02:43:27;99708.72;;;17.70;100.00
64675;BME280;51090;51.512;11.332;2023-08-12T02:45:53;99702.56;;;17.69;100.00
64675;BME280;51090;51.512;11.332;2023-08-12T02:48:19;99702.81;;;17.68;100.00
64675;BME280;51090;51.512;11.332;2023-08-12T02:50:45;99701.97;;;17.67;100.00
64675;BME280;51090;51.512;11.332;2023-08-12T02:53:11;99699.28;;;17.67;100.00
64675;BME280;51090;51.512;11.332;2023-08-12T02:55:37;99690.41;;;17.67;100.00
64675;BME280;51090;51.512;11.332;2023-08-12T02:58:04;99687.72;;;17.67;100.00
64675;BME280;51090;51.512;11.332;2023-08-12T03:00:30;99692.06;;;17.68;100.00
64675;BME280;51090;51.512;11.332;2023-08-12T03:02:56;99691.84;;;17.69;100.00
64675;BME280;51090;51.512;11.332;2023-08-12T03:05:23;99684.59;;;17.70;100.00
64675;BME280;51090;51.512;11.332;2023-08-12T03:07:49;99685.66;;;17.69;100.00
64675;BME280;51090;51.512;11.332;2023-08-12T03:10:17;99684.03;;;17.68;100.00
64675;BME280;51090;51.512;11.332;2023-08-12T03:12:43;99690.41;;;17.67;100.00
64675;BME280;51090;51.512;11.332;2023-08-12T03:15:09;99679.09;;;17.64;100.00
64675;BME280;51090;51.512;11.332;2023-08-12T03:17:36;99682.81;;;17.63;100.00
64675;BME280;51090;51.512;11.332;2023-08-12T03:20:05;99670.69;;;17.61;100.00
64675;BME280;51090;51.512;11.332;2023-08-12T03:22:31;99677.53;;;17.57;100.00
64675;BME280;51090;51.512;11.332;2023-08-12T03:24:58;99678.28;;;17.64;100.00
64675;BME280;51090;51.512;11.332;2023-08-12T03:27:24;99674.28;;;17.55;100.00
64675;BME280;51090;51.512;11.332;2023-08-12T03:29:50;99669.78;;;17.49;100.00
64675;BME280;51090;51.512;11.332;2023-08-12T03:32:16;99674.34;;;17.48;100.00
64675;BME280;51090;51.512;11.332;2023-08-12T03:34:42;99670.25;;;17.46;100.00
64675;BME280;51090;51.512;11.332;2023-08-12T03:37:08;99676.88;;;17.43;100.00
64675;BME280;51090;51.512;11.332;2023-08-12T03:39:34;99680.00;;;17.40;100.00
64675;BME280;51090;51.512;11.332;2023-08-12T03:42:00;99673.84;;;17.39;100.00
64675;BME280;51090;51.512;11.332;2023-08-12T03:44:26;99670.31;;;17.39;100.00
64675;BME280;51090;51.512;11.332;2023-08-12T03:46:52;99669.50;;;17.38;100.00
64675;BME280;51090;51.512;11.332;2023-08-12T03:49:18;99661.47;;;17.38;100.00
64675;BME280;51090;51.512;11.332;2023-08-12T03:51:44;99664.13;;;17.38;100.00
64675;BME280;51090;51.512;11.332;2023-08-12T03:54:11;99662.06;;;17.40;100.00
64675;BME280;51090;51.512;11.332;2023-08-12T03:56:37;99662.06;;;17.40;100.00
64675;BME280;51090;51.512;11.332;2023-08-12T03:59:03;99661.84;;;17.42;100.00
64675;BME280;51090;51.512;11.332;2023-08-12T04:01:29;99664.44;;;17.49;100.00
64675;BME280;51090;51.512;11.332;2023-08-12T04:03:55;99669.72;;;17.55;100.00
64675;BME280;51090;51.512;11.332;2023-08-12T04:06:21;99671.50;;;17.61;100.00
64675;BME280;51090;51.512;11.332;2023-08-12T04:08:47;99662.31;;;17.69;100.00
64675;BME280;51090;51.512;11.332;2023-08-12T04:11:13;99662.25;;;17.76;100.00
64675;BME280;51090;51.512;11.332;2023-08-12T04:13:40;99668.59;;;17.81;100.00
64675;BME280;51090;51.512;11.332;2023-08-12T04:16:06;99668.97;;;17.85;100.00
64675;BME280;51090;51.512;11.332;2023-08-12T04:18:32;99666.06;;;17.87;100.00
64675;BME280;51090;51.512;11.332;2023-08-12T04:20:58;99662.09;;;17.89;100.00
64675;BME280;51090;51.512;11.332;2023-08-12T04:23:23;99660.84;;;17.92;100.00
64675;BME280;51090;51.512;11.332;2023-08-12T04:25:49;99667.41;;;17.96;100.00
64675;BME280;51090;51.512;11.332;2023-08-12T04:28:16;99660.88;;;18.03;100.00
64675;BME280;51090;51.512;11.332;2023-08-12T04:30:48;99665.13;;;18.11;100.00
64675;BME280;51090;51.512;11.332;2023-08-12T04:33:14;99666.06;;;18.17;100.00
64675;BME280;51090;51.512;11.332;2023-08-12T04:35:41;99660.56;;;18.23;100.00
64675;BME280;51090;51.512;11.332;2023-08-12T04:38:07;99652.91;;;18.27;100.00
64675;BME280;51090;51.512;11.332;2023-08-12T04:40:33;99661.44;;;18.36;100.00
64675;BME280;51090;51.512;11.332;2023-08-12T04:42:59;99669.75;;;18.46;100.00
64675;BME280;51090;51.512;11.332;2023-08-12T04:45:25;99667.53;;;18.55;100.00
64675;BME280;51090;51.512;11.332;2023-08-12T04:47:51;99665.56;;;18.62;100.00
64675;BME280;51090;51.512;11.332;2023-08-12T04:50:17;99663.00;;;18.67;100.00
64675;BME280;51090;51.512;11.332;2023-08-12T04:52:43;99663.13;;;18.72;100.00
64675;BME280;51090;51.512;11.332;2023-08-12T04:55:09;99665.94;;;18.77;100.00
64675;BME280;51090;51.512;11.332;2023-08-12T04:57:38;99665.25;;;18.82;100.00
64675;BME280;51090;51.512;11.332;2023-08-12T05:00:05;99672.97;;;18.90;100.00
64675;BME280;51090;51.512;11.332;2023-08-12T05:02:34;99667.00;;;19.00;100.00
64675;BME280;51090;51.512;11.332;2023-08-12T05:05:00;99664.88;;;19.13;100.00
64675;BME280;51090;51.512;11.332;2023-08-12T05:07:26;99671.19;;;19.31;100.00
64675;BME280;51090;51.512;11.332;2023-08-12T05:09:52;99675.97;;;19.52;100.00
64675;BME280;51090;51.512;11.332;2023-08-12T05:12:18;99678.03;;;19.74;100.00
64675;BME280;51090;51.512;11.332;2023-08-12T05:14:44;99678.66;;;19.93;100.00
64675;BME280;51090;51.512;11.332;2023-08-12T05:17:10;99676.94;;;20.04;99.90
64675;BME280;51090;51.512;11.332;2023-08-12T05:19:35;99651.06;;;19.86;99.28
64675;BME280;51090;51.512;11.332;2023-08-12T05:22:01;99670.66;;;19.98;99.38
64675;BME280;51090;51.512;11.332;2023-08-12T05:24:27;99670.44;;;19.99;99.83
64675;BME280;51090;51.512;11.332;2023-08-12T05:26:53;99669.47;;;20.06;100.00
64675;BME280;51090;51.512;11.332;2023-08-12T05:29:19;99671.53;;;20.15;100.00
64675;BME280;51090;51.512;11.332;2023-08-12T05:31:44;99671.13;;;20.23;99.75
64675;BME280;51090;51.512;11.332;2023-08-12T05:34:10;99673.69;;;20.30;99.26
64675;BME280;51090;51.512;11.332;2023-08-12T05:36:36;99676.19;;;20.37;98.89
64675;BME280;51090;51.512;11.332;2023-08-12T05:39:02;99653.44;;;20.28;98.16
64675;BME280;51090;51.512;11.332;2023-08-12T05:41:29;99666.09;;;20.27;97.97
64675;BME280;51090;51.512;11.332;2023-08-12T05:43:54;99654.31;;;20.16;98.14
64675;BME280;51090;51.512;11.332;2023-08-12T05:46:20;99643.34;;;20.06;98.96
64675;BME280;51090;51.512;11.332;2023-08-12T05:48:46;99649.50;;;20.01;99.43
64675;BME280;51090;51.512;11.332;2023-08-12T05:51:12;99651.25;;;19.96;100.00
64675;BME280;51090;51.512;11.332;2023-08-12T05:53:38;99645.06;;;19.95;100.00
64675;BME280;51090;51.512;11.332;2023-08-12T05:56:04;99640.72;;;19.94;100.00
64675;BME280;51090;51.512;11.332;2023-08-12T05:58:29;99644.47;;;19.93;100.00
64675;BME280;51090;51.512;11.332;2023-08-12T06:00:55;99652.63;;;19.98;100.00
64675;BME280;51090;51.512;11.332;2023-08-12T06:03:21;99642.94;;;19.97;100.00
64675;BME280;51090;51.512;11.332;2023-08-12T06:05:47;99651.34;;;20.01;100.00
64675;BME280;51090;51.512;11.332;2023-08-12T06:08:13;99653.06;;;20.07;100.00
64675;BME280;51090;51.512;11.332;2023-08-12T06:10:39;99646.50;;;20.15;100.00
64675;BME280;51090;51.512;11.332;2023-08-12T06:13:05;99651.78;;;20.27;100.00
64675;BME280;51090;51.512;11.332;2023-08-12T06:15:31;99651.50;;;20.40;100.00
64675;BME280;51090;51.512;11.332;2023-08-12T06:17:57;99644.97;;;20.53;100.00
64675;BME280;51090;51.512;11.332;2023-08-12T06:20:23;99647.19;;;20.73;100.00
64675;BME280;51090;51.512;11.332;2023-08-12T06:22:51;99654.19;;;20.91;100.00
64675;BME280;51090;51.512;11.332;2023-08-12T06:25:17;99662.41;;;21.01;100.00
64675;BME280;51090;51.512;11.332;2023-08-12T06:27:44;99657.16;;;21.11;99.80
64675;BME280;51090;51.512;11.332;2023-08-12T06:30:10;99649.88;;;21.12;99.32
64675;BME280;51090;51.512;11.332;2023-08-12T06:32:37;99651.13;;;21.04;98.57
64675;BME280;51090;51.512;11.332;2023-08-12T06:35:03;99649.88;;;20.90;99.70
64675;BME280;51090;51.512;11.332;2023-08-12T06:37:29;99650.22;;;20.76;100.00
64675;BME280;51090;51.512;11.332;2023-08-12T06:39:55;99649.78;;;20.67;100.00
64675;BME280;51090;51.512;11.332;2023-08-12T06:42:22;99644.31;;;20.62;100.00
64675;BME280;51090;51.512;11.332;2023-08-12T06:44:55;99620.81;;;20.41;100.00
64675;BME280;51090;51.512;11.332;2023-08-12T06:47:21;99642.84;;;20.55;100.00
64675;BME280;51090;51.512;11.332;2023-08-12T06:49:47;99642.94;;;20.60;100.00
64675;BME280;51090;51.512;11.332;2023-08-12T06:52:13;99641.91;;;20.61;100.00
64675;BME280;51090;51.512;11.332;2023-08-12T06:54:39;99643.50;;;20.62;100.00
64675;BME280;51090;51.512;11.332;2023-08-12T06:57:04;99641.63;;;20.62;100.00
64675;BME280;51090;51.512;11.332;2023-08-12T06:59:30;99643.00;;;20.65;100.00
64675;BME280;51090;51.512;11.332;2023-08-12T07:01:56;99651.19;;;20.70;100.00
64675;BME280;51090;51.512;11.332;2023-08-12T07:04:22;99654.28;;;20.79;100.00
64675;BME280;51090;51.512;11.332;2023-08-12T07:06:48;99658.69;;;20.85;100.00
64675;BME280;51090;51.512;11.332;2023-08-12T07:09:14;99646.28;;;20.84;100.00
64675;BME280;51090;51.512;11.332;2023-08-12T07:11:40;99655.13;;;21.01;100.00
64675;BME280;51090;51.512;11.332;2023-08-12T07:14:06;99650.38;;;21.08;100.00
64675;BME280;51090;51.512;11.332;2023-08-12T07:16:31;99644.31;;;21.18;100.00
64675;BME280;51090;51.512;11.332;2023-08-12T07:18:57;99652.19;;;21.20;100.00
64675;BME280;51090;51.512;11.332;2023-08-12T07:21:23;99649.47;;;21.20;100.00
64675;BME280;51090;51.512;11.332;2023-08-12T07:23:49;99647.53;;;21.15;100.00
64675;BME280;51090;51.512;11.332;2023-08-12T07:26:14;99652.34;;;21.13;100.00
64675;BME280;51090;51.512;11.332;2023-08-12T07:28:40;99645.25;;;21.07;100.00
64675;BME280;51090;51.512;11.332;2023-08-12T07:31:06;99657.97;;;21.12;100.00
64675;BME280;51090;51.512;11.332;2023-08-12T07:33:32;99655.03;;;21.13;100.00
64675;BME280;51090;51.512;11.332;2023-08-12T07:35:58;99650.47;;;21.14;100.00
64675;BME280;51090;51.512;11.332;2023-08-12T07:38:23;99646.44;;;21.16;100.00
64675;BME280;51090;51.512;11.332;2023-08-12T07:40:50;99654.38;;;21.23;100.00
64675;BME280;51090;51.512;11.332;2023-08-12T07:43:16;99649.63;;;21.30;100.00
64675;BME280;51090;51.512;11.332;2023-08-12T07:45:42;99663.56;;;21.44;100.00
64675;BME280;51090;51.512;11.332;2023-08-12T07:48:07;99667.84;;;21.62;100.00
64675;BME280;51090;51.512;11.332;2023-08-12T07:50:33;99673.22;;;21.84;100.00
64675;BME280;51090;51.512;11.332;2023-08-12T07:52:59;99672.06;;;22.02;100.00
64675;BME280;51090;51.512;11.332;2023-08-12T07:55:24;99670.66;;;22.21;100.00
64675;BME280;51090;51.512;11.332;2023-08-12T07:57:50;99678.09;;;22.36;100.00
64675;BME280;51090;51.512;11.332;2023-08-12T08:00:16;99679.31;;;22.55;100.00
64675;BME280;51090;51.512;11.332;2023-08-12T08:02:42;99668.94;;;22.74;100.00
64675;BME280;51090;51.512;11.332;2023-08-12T08:05:08;99672.56;;;22.90;100.00
64675;BME280;51090;51.512;11.332;2023-08-12T08:07:33;99655.63;;;23.00;100.00
64675;BME280;51090;51.512;11.332;2023-08-12T08:09:59;99648.88;;;23.02;100.00
64675;BME280;51090;51.512;11.332;2023-08-12T08:12:25;99645.09;;;23.03;100.00
64675;BME280;51090;51.512;11.332;2023-08-12T08:14:51;99655.09;;;23.03;99.51
64675;BME280;51090;51.512;11.332;2023-08-12T08:17:16;99667.56;;;23.09;99.38
64675;BME280;51090;51.512;11.332;2023-08-12T08:19:42;99691.69;;;23.16;99.65
64675;BME280;51090;51.512;11.332;2023-08-12T08:22:08;99690.63;;;23.22;99.38
64675;BME280;51090;51.512;11.332;2023-08-12T08:24:34;99688.78;;;23.28;98.57
64675;BME280;51090;51.512;11.332;2023-08-12T08:27:00;99678.47;;;23.24;98.30
64675;BME280;51090;51.512;11.332;2023-08-12T08:29:25;99672.81;;;23.26;96.88
64675;BME280;51090;51.512;11.332;2023-08-12T08:31:51;99678.72;;;23.18;96.65
64675;BME280;51090;51.512;11.332;2023-08-12T08:34:17;99673.53;;;23.11;96.55
64675;BME280;51090;51.512;11.332;2023-08-12T08:36:43;99668.63;;;23.03;96.86
64675;BME280;51090;51.512;11.332;2023-08-12T08:39:08;99667.78;;;22.97;97.42
64675;BME280;51090;51.512;11.332;2023-08-12T08:41:39;99665.28;;;22.96;98.31
64675;BME280;51090;51.512;11.332;2023-08-12T08:44:08;99671.31;;;23.03;98.00
64675;BME280;51090;51.512;11.332;2023-08-12T08:46:35;99673.28;;;23.13;97.15
64675;BME280;51090;51.512;11.332;2023-08-12T08:49:01;99677.66;;;23.24;96.53
64675;BME280;51090;51.512;11.332;2023-08-12T08:51:31;99693.69;;;23.36;95.08
64675;BME280;51090;51.512;11.332;2023-08-12T08:54:02;99698.88;;;23.47;94.64
64675;BME280;51090;51.512;11.332;2023-08-12T08:56:31;99694.34;;;23.63;93.91
64675;BME280;51090;51.512;11.332;2023-08-12T08:58:58;99685.47;;;23.73;92.41
64675;BME280;51090;51.512;11.332;2023-08-12T09:01:24;99663.53;;;23.69;91.54
64675;BME280;51090;51.512;11.332;2023-08-12T09:03:51;99610.94;;;23.55;90.80
64675;BME280;51090;51.512;11.332;2023-08-12T09:06:21;99612.25;;;23.42;91.51
64675;BME280;51090;51.512;11.332;2023-08-12T09:08:48;99609.25;;;23.29;92.64
64675;BME280;51090;51.512;11.332;2023-08-12T09:11:18;99596.53;;;23.34;92.61
64675;BME280;51090;51.512;11.332;2023-08-12T09:13:45;99593.03;;;23.39;93.22
64675;BME280;51090;51.512;11.332;2023-08-12T09:16:10;99596.06;;;23.53;93.70
64675;BME280;51090;51.512;11.332;2023-08-12T09:18:37;99593.38;;;23.68;93.77
64675;BME280;51090;51.512;11.332;2023-08-12T09:21:04;99596.19;;;24.09;94.42
64675;BME280;51090;51.512;11.332;2023-08-12T09:23:37;99594.84;;;24.63;92.41
64675;BME280;51090;51.512;11.332;2023-08-12T09:26:03;99608.53;;;25.23;90.63
64675;BME280;51090;51.512;11.332;2023-08-12T09:28:36;99603.06;;;25.82;87.69
64675;BME280;51090;51.512;11.332;2023-08-12T09:31:02;99617.13;;;26.34;84.51
64675;BME280;51090;51.512;11.332;2023-08-12T09:33:28;99609.38;;;26.52;78.93
64675;BME280;51090;51.512;11.332;2023-08-12T09:35:54;99610.22;;;26.76;79.12
64675;BME280;51090;51.512;11.332;2023-08-12T09:38:22;99605.78;;;27.09;78.46
64675;BME280;51090;51.512;11.332;2023-08-12T09:40:48;99626.06;;;27.46;77.51
64675;BME280;51090;51.512;11.332;2023-08-12T09:43:14;99642.22;;;27.80;75.77
64675;BME280;51090;51.512;11.332;2023-08-12T09:45:44;99640.56;;;28.04;73.38
64675;BME280;51090;51.512;11.332;2023-08-12T09:48:10;99634.53;;;28.20;72.56
64675;BME280;51090;51.512;11.332;2023-08-12T09:50:36;99644.41;;;28.35;70.92
64675;BME280;51090;51.512;11.332;2023-08-12T09:53:02;99638.56;;;28.42;70.54
64675;BME280;51090;51.512;11.332;2023-08-12T09:55:29;99650.88;;;28.58;69.59
64675;BME280;51090;51.512;11.332;2023-08-12T09:57:57;99645.75;;;28.71;68.21
64675;BME280;51090;51.512;11.332;2023-08-12T10:00:24;99644.63;;;28.72;68.30
64675;BME280;51090;51.512;11.332;2023-08-12T10:02:52;99643.72;;;28.76;67.36
64675;BME280;51090;51.512;11.332;2023-08-12T10:07:55;99636.94;;;28.60;65.96
64675;BME280;51090;51.512;11.332;2023-08-12T10:10:21;99628.03;;;28.54;66.66
64675;BME280;51090;51.512;11.332;2023-08-12T10:12:51;99627.13;;;28.59;66.57
64675;BME280;51090;51.512;11.332;2023-08-12T10:15:17;99628.66;;;28.65;62.89
64675;BME280;51090;51.512;11.332;2023-08-12T10:17:43;99626.84;;;28.60;63.75
64675;BME280;51090;51.512;11.332;2023-08-12T10:20:13;99621.56;;;28.50;63.67
64675;BME280;51090;51.512;11.332;2023-08-12T10:22:40;99619.94;;;28.49;63.87
64675;BME280;51090;51.512;11.332;2023-08-12T10:25:08;99609.72;;;28.22;63.59
64675;BME280;51090;51.512;11.332;2023-08-12T10:27:35;99610.56;;;28.04;64.13
64675;BME280;51090;51.512;11.332;2023-08-12T10:30:04;99598.84;;;27.84;64.27
64675;BME280;51090;51.512;11.332;2023-08-12T10:32:31;99594.13;;;27.71;65.17
64675;BME280;51090;51.512;11.332;2023-08-12T10:34:58;99600.25;;;27.63;65.89
64675;BME280;51090;51.512;11.332;2023-08-12T10:37:25;99592.59;;;27.65;66.32
64675;BME280;51090;51.512;11.332;2023-08-12T10:39:54;99595.06;;;27.61;66.45
64675;BME280;51090;51.512;11.332;2023-08-12T10:42:43;99588.38;;;27.53;66.83
64675;BME280;51090;51.512;11.332;2023-08-12T10:45:15;99589.34;;;27.44;66.32
64675;BME280;51090;51.512;11.332;2023-08-12T10:50:43;99581.81;;;27.11;67.20
64675;BME280;51090;51.512;11.332;2023-08-12T10:53:29;99573.03;;;26.96;67.84
64675;BME280;51090;51.512;11.332;2023-08-12T10:56:04;99578.81;;;26.89;67.87
64675;BME280;51090;51.512;11.332;2023-08-12T10:58:46;99556.34;;;26.78;68.80
64675;BME280;51090;51.512;11.332;2023-08-12T11:01:18;99552.41;;;26.65;68.58
64675;BME280;51090;51.512;11.332;2023-08-12T11:03:45;99552.75;;;26.59;69.38
64675;BME280;51090;51.512;11.332;2023-08-12T11:06:11;99544.06;;;26.57;69.86
64675;BME280;51090;51.512;11.332;2023-08-12T11:08:45;99542.22;;;26.52;70.51
64675;BME280;51090;51.512;11.332;2023-08-12T11:11:25;99538.19;;;26.44;71.70
64675;BME280;51090;51.512;11.332;2023-08-12T11:13:56;99540.91;;;26.44;71.29
64675;BME280;51090;51.512;11.332;2023-08-12T11:16:35;99527.69;;;26.33;70.79
64675;BME280;51090;51.512;11.332;2023-08-12T11:19:03;99541.72;;;26.45;71.07
64675;BME280;51090;51.512;11.332;2023-08-12T11:21:29;99543.63;;;26.44;72.09
64675;BME280;51090;51.512;11.332;2023-08-12T11:23:55;99544.66;;;26.48;71.84
64675;BME280;51090;51.512;11.332;2023-08-12T11:26:24;99548.47;;;26.53;74.02
64675;BME280;51090;51.512;11.332;2023-08-12T11:28:50;99530.75;;;26.55;71.59
64675;BME280;51090;51.512;11.332;2023-08-12T11:31:17;99541.66;;;26.50;71.32
64675;BME280;51090;51.512;11.332;2023-08-12T11:33:43;99525.06;;;26.52;71.27
64675;BME280;51090;51.512;11.332;2023-08-12T11:36:09;99520.09;;;26.59;71.67
64675;BME280;51090;51.512;11.332;2023-08-12T11:38:35;99518.84;;;26.46;72.73
64675;BME280;51090;51.512;11.332;2023-08-12T11:41:01;99517.97;;;26.56;72.20
64675;BME280;51090;51.512;11.332;2023-08-12T11:43:28;99522.50;;;26.65;72.28
64675;BME280;51090;51.512;11.332;2023-08-12T11:45:56;99532.38;;;26.80;71.54
64675;BME280;51090;51.512;11.332;2023-08-12T11:48:22;99512.41;;;26.90;70.87
64675;BME280;51090;51.512;11.332;2023-08-12T11:50:49;99507.00;;;27.09;70.63
64675;BME280;51090;51.512;11.332;2023-08-12T11:53:15;99506.16;;;27.32;70.63
64675;BME280;51090;51.512;11.332;2023-08-12T11:55:41;99510.56;;;27.47;70.25
64675;BME280;51090;51.512;11.332;2023-08-12T11:58:07;99509.97;;;27.50;70.36
64675;BME280;51090;51.512;11.332;2023-08-12T12:00:33;99502.63;;;27.51;70.31
64675;BME280;51090;51.512;11.332;2023-08-12T12:02:59;99502.63;;;27.70;71.19
64675;BME280;51090;51.512;11.332;2023-08-12T12:05:29;99512.53;;;27.98;68.80
64675;BME280;51090;51.512;11.332;2023-08-12T12:07:59;99505.03;;;28.37;68.75
64675;BME280;51090;51.512;11.332;2023-08-12T12:10:31;99514.56;;;28.81;64.16
64675;BME280;51090;51.512;11.332;2023-08-12T12:12:59;99511.94;;;29.03;65.23
64675;BME280;51090;51.512;11.332;2023-08-12T12:15:25;99507.53;;;29.30;65.30
64675;BME280;51090;51.512;11.332;2023-08-12T12:17:52;99518.41;;;29.58;64.59
64675;BME280;51090;51.512;11.332;2023-08-12T12:20:18;99521.28;;;29.75;64.21
64675;BME280;51090;51.512;11.332;2023-08-12T12:22:45;99509.28;;;29.85;62.77
64675;BME280;51090;51.512;11.332;2023-08-12T12:25:13;99497.25;;;29.86;62.70
64675;BME280;51090;51.512;11.332;2023-08-12T12:27:41;99515.91;;;30.15;63.08
64675;BME280;51090;51.512;11.332;2023-08-12T12:30:12;99505.97;;;30.50;61.40
64675;BME280;51090;51.512;11.332;2023-08-12T12:32:38;99511.53;;;30.68;60.56
64675;BME280;51090;51.512;11.332;2023-08-12T12:35:05;99494.91;;;30.64;60.21
64675;BME280;51090;51.512;11.332;2023-08-12T12:37:33;99494.56;;;30.57;60.09
64675;BME280;51090;51.512;11.332;2023-08-12T12:39:59;99482.13;;;30.42;59.90
64675;BME280;51090;51.512;11.332;2023-08-12T12:42:25;99485.63;;;30.34;60.55
64675;BME280;51090;51.512;11.332;2023-08-12T12:44:51;99484.66;;;30.30;59.74
64675;BME280;51090;51.512;11.332;2023-08-12T12:47:16;99480.34;;;30.15;59.79
64675;BME280;51090;51.512;11.332;2023-08-12T12:49:44;99480.22;;;30.20;60.03
64675;BME280;51090;51.512;11.332;2023-08-12T12:52:10;99485.44;;;30.30;58.89
64675;BME280;51090;51.512;11.332;2023-08-12T12:54:36;99473.31;;;30.23;59.42